createdAt,value
2017-08-02T00:01:09.748Z,5.60
2017-08-02T00:03:37.091Z,6.03
2017-08-02T00:06:04.385Z,7.03
2017-08-02T00:08:31.692Z,7.93
2017-08-02T00:10:59.013Z,5.87
2017-08-02T00:13:26.320Z,13.80
2017-08-02T00:15:53.625Z,9.63
2017-08-02T00:18:20.953Z,8.30
2017-08-02T00:20:48.278Z,8.60
2017-08-02T00:23:15.593Z,12.13
2017-08-02T00:25:42.972Z,13.00
2017-08-02T00:28:10.625Z,10.80
2017-08-02T00:30:38.284Z,10.13
2017-08-02T00:33:05.708Z,8.83
2017-08-02T00:35:33.005Z,8.30
2017-08-02T00:38:00.316Z,8.27
2017-08-02T00:40:27.921Z,6.17
2017-08-02T00:42:55.456Z,6.57
2017-08-02T00:45:22.832Z,8.03
2017-08-02T00:47:50.455Z,8.07
2017-08-02T00:50:17.779Z,8.73
2017-08-02T00:52:45.056Z,8.10
2017-08-02T00:55:12.709Z,11.03
2017-08-02T00:57:40.338Z,11.27
2017-08-02T01:00:07.645Z,7.83
2017-08-02T01:02:34.929Z,7.90
2017-08-02T01:05:02.229Z,7.60
2017-08-02T01:07:29.539Z,11.67
2017-08-02T01:09:56.856Z,8.40
2017-08-02T01:12:24.140Z,8.00
2017-08-02T01:14:51.461Z,9.70
2017-08-02T01:17:19.061Z,7.30
2017-08-02T01:19:46.548Z,10.17
2017-08-02T01:22:14.169Z,8.80
2017-08-02T01:24:41.452Z,9.00
2017-08-02T01:27:08.768Z,8.30
2017-08-02T01:29:36.097Z,10.07
2017-08-02T01:32:03.418Z,9.03
2017-08-02T01:34:30.870Z,12.27
2017-08-02T01:36:58.222Z,12.23
2017-08-02T01:39:25.529Z,19.53
2017-08-02T01:41:52.908Z,12.00
2017-08-02T01:44:20.232Z,14.83
2017-08-02T01:46:47.591Z,12.97
2017-08-02T01:49:14.908Z,12.93
2017-08-02T01:51:42.216Z,14.80
2017-08-02T01:54:09.815Z,14.47
2017-08-02T01:56:37.140Z,14.10
2017-08-02T01:59:04.453Z,15.13
2017-08-02T02:01:31.744Z,16.00
2017-08-02T02:03:59.085Z,9.83
2017-08-02T02:06:26.709Z,11.17
2017-08-02T02:08:54.061Z,12.43
2017-08-02T02:11:21.357Z,8.77
2017-08-02T02:13:48.681Z,11.40
2017-08-02T02:16:15.982Z,18.60
2017-08-02T02:18:43.436Z,9.53
2017-08-02T02:21:10.972Z,12.07
2017-08-02T02:23:38.294Z,9.37
2017-08-02T02:26:05.584Z,13.17
2017-08-02T02:28:32.889Z,9.00
2017-08-02T02:31:00.210Z,14.10
2017-08-02T02:33:27.587Z,14.23
2017-08-02T02:35:54.923Z,12.40
2017-08-02T02:38:22.466Z,10.33
2017-08-02T02:40:49.776Z,13.43
2017-08-02T02:43:17.241Z,11.83
2017-08-02T02:45:44.617Z,14.83
2017-08-02T02:48:11.928Z,14.13
2017-08-02T02:50:39.236Z,13.23
2017-08-02T02:53:06.535Z,13.90
2017-08-02T02:55:34.369Z,12.67
2017-08-02T02:58:02.128Z,16.37
2017-08-02T03:00:29.460Z,12.73
2017-08-02T03:02:56.796Z,16.17
2017-08-02T03:05:24.120Z,14.90
2017-08-02T03:07:51.458Z,13.10
2017-08-02T03:10:18.756Z,14.13
2017-08-02T03:12:46.109Z,13.17
2017-08-02T03:15:13.401Z,12.30
2017-08-02T03:17:40.762Z,15.50
2017-08-02T03:20:08.061Z,15.90
2017-08-02T03:22:35.392Z,12.17
2017-08-02T03:25:02.690Z,18.03
2017-08-02T03:27:30.016Z,18.13
2017-08-02T03:29:57.787Z,17.70
2017-08-02T03:32:25.114Z,21.93
2017-08-02T03:34:52.939Z,14.80
2017-08-02T03:37:20.277Z,17.87
2017-08-02T03:39:47.742Z,17.17
2017-08-02T03:42:15.085Z,14.80
2017-08-02T03:44:42.438Z,15.70
2017-08-02T03:47:10.077Z,17.80
2017-08-02T03:49:37.420Z,21.23
2017-08-02T03:52:04.724Z,22.00
2017-08-02T03:54:32.116Z,17.23
2017-08-02T03:57:00.039Z,20.97
2017-08-02T03:59:27.347Z,20.80
2017-08-02T04:01:54.724Z,19.40
2017-08-02T04:04:22.041Z,20.87
2017-08-02T04:06:49.429Z,19.03
2017-08-02T04:09:17.264Z,21.93
2017-08-02T04:11:45.099Z,21.73
2017-08-02T04:14:12.434Z,22.13
2017-08-02T04:16:39.996Z,23.40
2017-08-02T04:19:07.319Z,24.20
2017-08-02T04:21:34.701Z,19.67
2017-08-02T04:24:02.628Z,25.20
2017-08-02T04:26:29.956Z,18.53
2017-08-02T04:28:57.320Z,20.80
2017-08-02T04:31:24.635Z,24.20
2017-08-02T04:33:51.952Z,23.10
2017-08-02T04:36:19.256Z,27.70
2017-08-02T04:38:46.589Z,28.63
2017-08-02T04:41:14.257Z,27.50
2017-08-02T04:43:41.585Z,24.60
2017-08-02T04:46:08.922Z,28.43
2017-08-02T04:48:36.216Z,27.57
2017-08-02T04:51:03.578Z,23.07
2017-08-02T04:53:30.864Z,23.77
2017-08-02T04:55:58.187Z,28.77
2017-08-02T04:58:25.505Z,23.67
2017-08-02T05:00:52.822Z,24.17
2017-08-02T05:03:20.214Z,27.13
2017-08-02T05:05:47.545Z,24.00
2017-08-02T05:10:44.822Z,24.70
2017-08-02T05:13:12.126Z,25.83
2017-08-02T05:15:39.415Z,25.80
2017-08-02T05:18:06.723Z,28.83
2017-08-02T05:20:34.053Z,24.43
2017-08-02T05:23:01.365Z,28.20
2017-08-02T05:25:28.673Z,23.23
2017-08-02T05:27:55.997Z,28.30
2017-08-02T05:30:23.320Z,30.40
2017-08-02T05:32:50.656Z,24.67
2017-08-02T05:35:18.027Z,24.87
2017-08-02T05:37:45.327Z,25.40
2017-08-02T05:40:12.661Z,25.30
2017-08-02T05:42:40.221Z,31.23
2017-08-02T05:45:07.532Z,26.73
2017-08-02T05:47:34.833Z,30.67
2017-08-02T05:50:02.171Z,27.93
2017-08-02T05:52:29.494Z,30.13
2017-08-02T05:54:56.941Z,23.87
2017-08-02T05:57:24.272Z,22.27
2017-08-02T05:59:51.593Z,29.77
2017-08-02T06:02:19.048Z,38.13
2017-08-02T06:04:46.415Z,28.70
2017-08-02T06:07:13.741Z,25.43
2017-08-02T06:09:41.077Z,28.20
2017-08-02T06:12:08.392Z,28.83
2017-08-02T06:14:35.705Z,27.07
2017-08-02T06:17:03.026Z,28.83
2017-08-02T06:19:30.343Z,33.27
2017-08-02T06:21:57.709Z,32.20
2017-08-02T06:24:25.033Z,25.83
2017-08-02T06:26:52.377Z,23.53
2017-08-02T06:29:19.707Z,31.37
2017-08-02T06:31:47.176Z,27.63
2017-08-02T06:34:14.472Z,23.57
2017-08-02T06:36:41.788Z,23.47
2017-08-02T06:39:09.283Z,28.90
2017-08-02T06:41:36.597Z,25.50
2017-08-02T06:44:03.962Z,23.73
2017-08-02T06:46:31.279Z,27.93
2017-08-02T06:48:58.724Z,24.83
2017-08-02T06:51:26.091Z,27.00
2017-08-02T06:53:53.958Z,28.53
2017-08-02T06:56:21.253Z,27.20
2017-08-02T06:58:48.642Z,28.50
2017-08-02T07:01:16.256Z,28.47
2017-08-02T07:03:43.582Z,23.03
2017-08-02T07:06:10.900Z,26.87
2017-08-02T07:08:38.217Z,25.30
2017-08-02T07:11:06.027Z,25.30
2017-08-02T07:13:33.358Z,26.00
2017-08-02T07:16:00.661Z,22.07
2017-08-02T07:18:27.990Z,29.93
2017-08-02T07:20:55.332Z,24.70
2017-08-02T07:23:22.671Z,22.10
2017-08-02T07:25:49.992Z,24.10
2017-08-02T07:28:17.834Z,22.93
2017-08-02T07:30:45.161Z,25.60
2017-08-02T07:33:12.550Z,23.30
2017-08-02T07:35:40.195Z,24.57
2017-08-02T07:38:07.532Z,22.73
2017-08-02T07:40:35.387Z,19.50
2017-08-02T07:43:03.012Z,20.20
2017-08-02T07:45:30.331Z,18.93
2017-08-02T07:47:57.798Z,17.97
2017-08-02T07:50:25.657Z,24.33
2017-08-02T07:52:53.500Z,25.97
2017-08-02T07:55:21.358Z,21.20
2017-08-02T07:57:48.673Z,19.17
2017-08-02T08:00:15.968Z,23.27
2017-08-02T08:02:43.798Z,22.97
2017-08-02T08:05:11.637Z,23.10
2017-08-02T08:07:38.961Z,19.63
2017-08-02T08:10:06.333Z,23.50
2017-08-02T08:12:33.644Z,22.93
2017-08-02T08:15:01.125Z,21.13
2017-08-02T08:17:28.425Z,21.93
2017-08-02T08:19:55.744Z,18.73
2017-08-02T08:22:23.069Z,18.47
2017-08-02T08:24:50.390Z,19.63
2017-08-02T08:27:17.742Z,20.80
2017-08-02T08:29:45.668Z,27.80
2017-08-02T08:32:12.980Z,18.60
2017-08-02T08:34:40.672Z,20.73
2017-08-02T08:37:07.995Z,21.00
2017-08-02T08:39:35.369Z,17.63
2017-08-02T08:42:03.203Z,19.20
2017-08-02T08:44:30.508Z,19.50
2017-08-02T08:46:57.822Z,16.93
2017-08-02T08:49:25.144Z,20.20
2017-08-02T08:51:52.469Z,21.93
2017-08-02T08:54:19.820Z,21.10
2017-08-02T08:56:47.141Z,21.00
2017-08-02T08:59:14.475Z,20.40
2017-08-02T09:01:41.795Z,19.77
2017-08-02T09:04:09.193Z,20.73
2017-08-02T09:06:36.522Z,22.50
2017-08-02T09:09:03.862Z,19.13
2017-08-02T09:11:31.709Z,18.43
2017-08-02T09:13:59.045Z,17.10
2017-08-02T09:16:26.909Z,15.83
2017-08-02T09:18:54.743Z,17.83
2017-08-02T09:21:22.069Z,20.90
2017-08-02T09:23:49.376Z,15.20
2017-08-02T09:26:16.702Z,22.80
2017-08-02T09:28:44.021Z,23.40
2017-08-02T09:31:11.376Z,16.50
2017-08-02T09:33:38.695Z,16.37
2017-08-02T09:36:06.067Z,15.43
2017-08-02T09:38:33.383Z,15.63
2017-08-02T09:41:00.708Z,15.27
2017-08-02T09:43:28.029Z,16.40
2017-08-02T09:45:55.491Z,14.77
2017-08-02T09:48:22.808Z,16.63
2017-08-02T09:50:50.129Z,19.63
2017-08-02T09:53:17.424Z,18.83
2017-08-02T09:55:44.728Z,15.47
2017-08-02T09:58:12.071Z,17.80
2017-08-02T10:00:39.373Z,18.37
2017-08-02T10:03:06.708Z,14.47
2017-08-02T10:05:34.019Z,14.37
2017-08-02T10:08:01.350Z,15.20
2017-08-02T10:10:28.707Z,18.80
2017-08-02T10:12:56.024Z,17.97
2017-08-02T10:15:23.333Z,16.07
2017-08-02T10:17:50.550Z,18.60
2017-08-02T10:20:18.210Z,15.20
2017-08-02T10:22:45.824Z,14.33
2017-08-02T10:25:13.135Z,16.30
2017-08-02T10:27:40.830Z,17.80
2017-08-02T10:30:08.304Z,17.40
2017-08-02T10:32:35.613Z,17.23
2017-08-02T10:35:03.260Z,19.90
2017-08-02T10:37:30.889Z,18.43
2017-08-02T10:39:58.203Z,17.50
2017-08-02T10:42:25.579Z,14.90
2017-08-02T10:44:52.911Z,16.03
2017-08-02T10:47:20.232Z,19.20
2017-08-02T10:49:47.544Z,20.73
2017-08-02T10:52:14.847Z,19.93
2017-08-02T10:54:42.637Z,20.70
2017-08-02T10:57:09.955Z,18.67
2017-08-02T10:59:37.426Z,18.60
2017-08-02T11:02:04.724Z,18.40
2017-08-02T11:04:32.212Z,18.20
2017-08-02T11:06:59.535Z,20.27
2017-08-02T11:09:26.863Z,19.40
2017-08-02T11:11:54.176Z,20.47
2017-08-02T11:14:21.480Z,16.17
2017-08-02T11:16:48.816Z,16.87
2017-08-02T11:19:16.179Z,17.07
2017-08-02T11:21:43.494Z,15.43
2017-08-02T11:24:10.846Z,19.53
2017-08-02T11:26:38.186Z,14.60
2017-08-02T11:29:05.513Z,14.80
2017-08-02T11:31:32.817Z,16.83
2017-08-02T11:34:00.144Z,12.20
2017-08-02T11:36:27.444Z,17.10
2017-08-02T11:38:54.756Z,13.23
2017-08-02T11:41:22.074Z,23.33
2017-08-02T11:43:49.382Z,13.07
2017-08-02T11:46:16.707Z,14.53
2017-08-02T11:48:44.028Z,14.90
2017-08-02T11:51:11.401Z,17.10
2017-08-02T11:53:38.784Z,15.50
2017-08-02T11:56:06.115Z,13.27
2017-08-02T11:58:33.417Z,11.50
2017-08-02T12:01:00.744Z,12.53
2017-08-02T12:03:28.070Z,12.67
2017-08-02T12:05:55.424Z,13.43
2017-08-02T12:08:22.739Z,10.57
2017-08-02T12:10:50.082Z,12.93
2017-08-02T12:13:17.402Z,14.40
2017-08-02T12:15:44.711Z,14.77
2017-08-02T12:18:12.030Z,11.33
2017-08-02T12:20:39.349Z,12.50
2017-08-02T12:23:07.612Z,9.23
2017-08-02T12:25:34.946Z,10.07
2017-08-02T12:28:02.246Z,12.20
2017-08-02T12:30:29.560Z,12.67
2017-08-02T12:32:56.852Z,14.47
2017-08-02T12:35:24.185Z,16.30
2017-08-02T12:37:51.503Z,11.30
2017-08-02T12:40:18.830Z,13.30
2017-08-02T12:42:46.129Z,11.53
2017-08-02T12:45:13.480Z,11.53
2017-08-02T12:47:40.797Z,10.70
2017-08-02T12:50:08.106Z,11.20
2017-08-02T12:52:35.419Z,12.37
2017-08-02T12:55:02.740Z,10.73
2017-08-02T12:57:30.083Z,10.00
2017-08-02T12:59:57.407Z,11.10
2017-08-02T13:02:24.720Z,11.97
2017-08-02T13:04:52.029Z,11.83
2017-08-02T13:07:19.380Z,16.07
2017-08-02T13:09:46.710Z,10.47
2017-08-02T13:12:14.008Z,10.40
2017-08-02T13:14:41.323Z,10.60
2017-08-02T13:17:08.633Z,12.30
2017-08-02T13:19:35.940Z,11.00
2017-08-02T13:22:03.275Z,11.57
2017-08-02T13:24:30.583Z,10.60
2017-08-02T13:26:57.880Z,15.43
2017-08-02T13:29:25.221Z,11.83
2017-08-02T13:31:52.525Z,12.33
2017-08-02T13:34:19.833Z,12.87
2017-08-02T13:36:47.170Z,11.90
2017-08-02T13:39:14.458Z,10.47
2017-08-02T13:41:41.777Z,13.53
2017-08-02T13:44:09.071Z,13.20
2017-08-02T13:46:36.392Z,11.00
2017-08-02T13:49:03.738Z,10.87
2017-08-02T13:51:31.102Z,10.93
2017-08-02T13:53:58.406Z,10.60
2017-08-02T13:56:25.734Z,11.57
2017-08-02T13:58:53.024Z,10.57
2017-08-02T14:01:20.635Z,10.03
2017-08-02T14:03:47.943Z,10.53
2017-08-02T14:06:15.534Z,8.97
2017-08-02T14:08:42.857Z,10.33
2017-08-02T14:11:10.168Z,10.30
2017-08-02T14:13:37.455Z,8.60
2017-08-02T14:16:04.789Z,7.40
2017-08-02T14:18:32.083Z,7.67
2017-08-02T14:20:59.385Z,8.23
2017-08-02T14:23:26.725Z,7.27
2017-08-02T14:25:54.035Z,7.60
2017-08-02T14:28:21.346Z,8.50
2017-08-02T14:30:48.828Z,8.47
2017-08-02T14:33:16.186Z,8.63
2017-08-02T14:35:43.514Z,7.73
2017-08-02T14:38:10.869Z,7.20
2017-08-02T14:40:38.203Z,7.73
2017-08-02T14:43:05.501Z,7.40
2017-08-02T14:45:32.792Z,9.10
2017-08-02T14:48:00.132Z,6.68
2017-08-02T14:50:27.457Z,7.53
2017-08-02T14:52:54.774Z,6.85
2017-08-02T14:55:22.061Z,6.97
2017-08-02T14:57:49.387Z,9.63
2017-08-02T15:00:16.686Z,5.50
2017-08-02T15:02:43.974Z,6.63
2017-08-02T15:05:11.328Z,5.70
2017-08-02T15:07:38.636Z,5.93
2017-08-02T15:10:05.980Z,5.90
2017-08-02T15:12:33.273Z,6.80
2017-08-02T15:15:00.568Z,6.25
2017-08-02T15:17:27.900Z,6.18
2017-08-02T15:19:55.207Z,6.03
2017-08-02T15:22:22.507Z,4.37
2017-08-02T15:24:49.872Z,4.32
2017-08-02T15:27:17.156Z,5.95
2017-08-02T15:29:44.474Z,5.57
2017-08-02T15:32:11.781Z,6.50
2017-08-02T15:34:39.095Z,5.25
2017-08-02T15:37:06.424Z,5.05
2017-08-02T15:39:33.740Z,5.20
2017-08-02T15:42:01.038Z,5.28
2017-08-02T15:44:28.360Z,4.57
2017-08-02T15:46:55.721Z,5.50
2017-08-02T15:49:23.029Z,4.93
2017-08-02T15:51:50.409Z,5.07
2017-08-02T15:54:17.780Z,4.70
2017-08-02T15:56:45.157Z,3.92
2017-08-02T15:59:12.494Z,4.32
2017-08-02T16:01:39.827Z,4.65
2017-08-02T16:04:07.193Z,4.93
2017-08-02T16:06:34.492Z,4.72
2017-08-02T16:09:01.794Z,4.45
2017-08-02T16:11:29.143Z,4.37
2017-08-02T16:13:56.430Z,5.95
2017-08-02T16:16:23.734Z,4.18
2017-08-02T16:18:51.019Z,6.25
2017-08-02T16:21:18.400Z,4.72
2017-08-02T16:23:45.704Z,5.57
2017-08-02T16:26:13.014Z,4.90
2017-08-02T16:28:40.316Z,7.32
2017-08-02T16:31:07.663Z,6.10
2017-08-02T16:33:35.038Z,5.30
2017-08-02T16:36:02.334Z,5.45
2017-08-02T16:38:29.680Z,4.93
2017-08-02T16:40:57.014Z,6.12
2017-08-02T16:43:24.353Z,5.00
2017-08-02T16:45:53.209Z,7.55
2017-08-02T16:48:20.534Z,4.97
2017-08-02T16:50:47.916Z,4.40
2017-08-02T16:53:15.270Z,6.72
2017-08-02T16:55:42.577Z,5.60
2017-08-02T16:58:09.889Z,7.03
2017-08-02T17:00:38.258Z,6.20
2017-08-02T17:03:05.591Z,9.83
2017-08-02T17:05:32.914Z,6.83
2017-08-02T17:08:00.220Z,10.23
2017-08-02T17:10:27.579Z,6.73
2017-08-02T17:12:54.901Z,7.80
2017-08-02T17:15:22.248Z,7.77
2017-08-02T17:17:49.557Z,7.53
2017-08-02T17:20:16.858Z,7.30
2017-08-02T17:22:44.153Z,8.70
2017-08-02T17:25:11.965Z,8.33
2017-08-02T17:27:39.274Z,7.00
2017-08-02T17:30:06.649Z,11.50
2017-08-02T17:32:33.970Z,7.37
2017-08-02T17:35:01.275Z,8.87
2017-08-02T17:37:28.608Z,7.00
2017-08-02T17:39:55.899Z,11.60
2017-08-02T17:42:25.027Z,8.93
2017-08-02T17:44:52.337Z,7.60
2017-08-02T17:47:19.649Z,7.20
2017-08-02T17:49:48.778Z,8.13
2017-08-02T17:52:16.104Z,7.23
2017-08-02T17:54:43.412Z,7.73
2017-08-02T17:57:11.096Z,10.43
2017-08-02T17:59:38.427Z,16.30
2017-08-02T18:02:05.757Z,7.70
2017-08-02T18:04:33.089Z,10.63
2017-08-02T18:07:00.449Z,8.57
2017-08-02T18:09:27.749Z,8.30
2017-08-02T18:11:55.071Z,11.40
2017-08-02T18:14:22.427Z,10.07
2017-08-02T18:16:49.890Z,8.30
2017-08-02T18:19:17.255Z,8.23
2017-08-02T18:21:44.564Z,14.77
2017-08-02T18:24:11.907Z,11.00
2017-08-02T18:26:39.242Z,10.27
2017-08-02T18:29:06.584Z,9.00
2017-08-02T18:31:33.935Z,10.43
2017-08-02T18:34:01.264Z,10.63
2017-08-02T18:36:28.631Z,10.30
2017-08-02T18:38:55.962Z,9.30
2017-08-02T18:41:23.292Z,9.53
2017-08-02T18:43:50.627Z,16.03
2017-08-02T18:46:18.017Z,13.70
2017-08-02T18:48:45.338Z,73.63
2017-08-02T18:51:12.657Z,17.43
2017-08-02T18:53:40.000Z,20.07
2017-08-02T18:56:07.345Z,20.73
2017-08-02T18:58:34.693Z,18.40
2017-08-02T19:01:02.043Z,24.03
2017-08-02T19:03:29.370Z,17.73
2017-08-02T19:05:56.696Z,20.73
2017-08-02T19:08:24.066Z,19.73
2017-08-02T19:10:51.400Z,24.83
2017-08-02T19:13:18.733Z,22.50
2017-08-02T19:15:46.098Z,20.83
2017-08-02T19:18:13.413Z,25.30
2017-08-02T19:20:40.843Z,23.07
2017-08-02T19:23:08.166Z,21.40
2017-08-02T19:25:35.487Z,23.33
2017-08-02T19:28:02.883Z,23.70
2017-08-02T19:30:30.222Z,18.50
2017-08-02T19:32:57.569Z,29.30
2017-08-02T19:35:24.893Z,24.10
2017-08-02T19:37:52.248Z,22.13
2017-08-02T19:40:19.594Z,22.57
2017-08-02T19:42:46.945Z,22.70
2017-08-02T19:45:14.265Z,25.60
2017-08-02T19:47:41.623Z,20.00
2017-08-02T19:50:08.972Z,23.50
2017-08-02T19:52:36.305Z,19.83
2017-08-02T19:55:03.628Z,21.57
2017-08-02T19:57:31.101Z,27.27
2017-08-02T19:59:58.428Z,21.07
2017-08-02T20:02:25.750Z,20.43
2017-08-02T20:04:53.113Z,21.57
2017-08-02T20:07:20.429Z,22.70
2017-08-02T20:09:48.729Z,20.13
2017-08-02T20:12:16.040Z,22.33
2017-08-02T20:14:43.392Z,19.77
2017-08-02T20:17:10.704Z,27.47
2017-08-02T20:19:38.048Z,21.40
2017-08-02T20:22:05.348Z,22.13
2017-08-02T20:24:32.675Z,18.37
2017-08-02T20:27:00.001Z,19.70
2017-08-02T20:29:27.332Z,21.23
2017-08-02T20:31:54.663Z,22.90
2017-08-02T20:34:21.995Z,18.17
2017-08-02T20:36:49.367Z,18.93
2017-08-02T20:39:16.685Z,20.63
2017-08-02T20:41:44.058Z,22.33
2017-08-02T20:44:11.355Z,20.17
2017-08-02T20:46:38.687Z,19.60
2017-08-02T20:49:06.001Z,21.87
2017-08-02T20:51:33.343Z,19.10
2017-08-02T20:54:00.655Z,18.77
2017-08-02T20:56:27.996Z,18.10
2017-08-02T20:58:55.315Z,20.67
2017-08-02T21:01:22.673Z,20.53
2017-08-02T21:03:49.998Z,21.03
2017-08-02T21:06:17.357Z,20.30
2017-08-02T21:08:44.682Z,18.10
2017-08-02T21:11:12.028Z,16.20
2017-08-02T21:13:39.387Z,16.93
2017-08-02T21:16:06.703Z,17.10
2017-08-02T21:18:34.273Z,20.43
2017-08-02T21:21:01.584Z,18.80
2017-08-02T21:23:28.926Z,19.10
2017-08-02T21:25:56.251Z,18.43
2017-08-02T21:28:23.576Z,16.60
2017-08-02T21:30:50.906Z,17.00
2017-08-02T21:33:18.281Z,20.83
2017-08-02T21:35:45.627Z,16.27
2017-08-02T21:38:12.951Z,16.47
2017-08-02T21:40:40.262Z,17.10
2017-08-02T21:43:07.600Z,19.80
2017-08-02T21:45:34.936Z,18.37
2017-08-02T21:48:02.250Z,26.97
2017-08-02T21:50:29.611Z,23.27
2017-08-02T21:52:56.923Z,16.63
2017-08-02T21:55:24.292Z,16.40
2017-08-02T21:57:51.596Z,21.30
2017-08-02T22:00:18.923Z,15.77
2017-08-02T22:02:46.220Z,16.00
2017-08-02T22:05:13.561Z,19.23
2017-08-02T22:07:40.884Z,16.33
2017-08-02T22:10:08.230Z,19.00
2017-08-02T22:12:35.572Z,18.27
2017-08-02T22:15:02.939Z,16.37
2017-08-02T22:17:30.240Z,21.03
2017-08-02T22:19:57.593Z,22.23
2017-08-02T22:22:25.137Z,19.10
2017-08-02T22:24:52.465Z,18.50
2017-08-02T22:27:19.786Z,20.60
2017-08-02T22:29:47.099Z,17.40
2017-08-02T22:32:14.412Z,16.70
2017-08-02T22:34:41.712Z,20.70
2017-08-02T22:37:09.061Z,20.20
2017-08-02T22:39:36.370Z,18.70
2017-08-02T22:42:03.695Z,20.63
2017-08-02T22:44:31.010Z,19.73
2017-08-02T22:46:58.350Z,18.77
2017-08-02T22:49:25.690Z,20.20
2017-08-02T22:51:53.038Z,21.77
2017-08-02T22:54:20.361Z,22.60
2017-08-02T22:56:47.701Z,20.27
2017-08-02T22:59:15.339Z,20.47
2017-08-02T23:01:42.691Z,18.07
2017-08-02T23:04:11.715Z,21.10
2017-08-02T23:06:39.037Z,19.27
2017-08-02T23:09:06.425Z,18.80
2017-08-02T23:11:33.733Z,17.97
2017-08-02T23:14:01.048Z,18.67
2017-08-02T23:16:28.380Z,21.93
2017-08-02T23:18:55.734Z,20.57
2017-08-02T23:21:23.057Z,18.97
2017-08-02T23:23:50.414Z,19.40
2017-08-02T23:26:18.146Z,25.80
2017-08-02T23:28:45.527Z,20.67
2017-08-02T23:31:13.657Z,20.43
2017-08-02T23:33:41.011Z,20.83
2017-08-02T23:36:08.300Z,22.50
2017-08-02T23:38:35.620Z,18.43
2017-08-02T23:41:02.939Z,19.17
2017-08-02T23:43:33.790Z,17.93
2017-08-02T23:46:01.210Z,19.93
2017-08-02T23:48:28.517Z,22.53
2017-08-02T23:50:55.861Z,21.03
2017-08-02T23:53:23.210Z,18.87
2017-08-02T23:55:50.563Z,18.37
2017-08-02T23:58:17.889Z,18.10
